Bom Progresso, Brazil
Current Conditions -  °F | °C
As of 1:00 AM on Friday 19 Dec 2014 (Local Time) from SBCH Reporting Station
Clear Clear  
Wind Chill: 70°   Ceiling: Unl
Heat Index: 70°   Visibility: 6mi
Dew Point: 59°   Wind: 5mph
Humidity: 68%   Direction: 110°ESE
Pressure: 29.88"   Gusts: NA
Location:  27.54°S, 53.87°W
Report Text: SBCH 190300Z 11004KT CAVOK 21/15 Q1012
Loading
Personal Weather Stations






























Interactive Weather Map New forecast layout! Learn more

10-Day Weather Forecast

Advertisements
Track Severe Weather on mobile